sensor_id;sensor_type;location;lat;lon;timestamp;pressure;altitude;pressure_sealevel;temperature
5571;BMP180;2808;51.240;6.794;2022-08-30T00:02:33;101478.00;;;19.80
5571;BMP180;2808;51.240;6.794;2022-08-30T00:05:01;101479.00;;;19.80
5571;BMP180;2808;51.240;6.794;2022-08-30T00:07:29;101491.00;;;19.80
5571;BMP180;2808;51.240;6.794;2022-08-30T00:09:58;101480.00;;;19.80
5571;BMP180;2808;51.240;6.794;2022-08-30T00:12:25;101477.00;;;19.80
5571;BMP180;2808;51.240;6.794;2022-08-30T00:14:53;101472.00;;;19.70
5571;BMP180;2808;51.240;6.794;2022-08-30T00:17:21;101479.00;;;19.70
5571;BMP180;2808;51.240;6.794;2022-08-30T00:19:48;101478.00;;;19.60
5571;BMP180;2808;51.240;6.794;2022-08-30T00:22:17;101477.00;;;19.60
5571;BMP180;2808;51.240;6.794;2022-08-30T00:24:44;101467.00;;;19.50
5571;BMP180;2808;51.240;6.794;2022-08-30T00:27:13;101468.00;;;19.50
5571;BMP180;2808;51.240;6.794;2022-08-30T00:29:41;101477.00;;;19.50
5571;BMP180;2808;51.240;6.794;2022-08-30T00:32:08;101484.00;;;19.50
5571;BMP180;2808;51.240;6.794;2022-08-30T00:34:36;101488.00;;;19.40
5571;BMP180;2808;51.240;6.794;2022-08-30T00:37:03;101478.00;;;19.40
5571;BMP180;2808;51.240;6.794;2022-08-30T00:39:31;101485.00;;;19.40
5571;BMP180;2808;51.240;6.794;2022-08-30T00:41:58;101488.00;;;19.40
5571;BMP180;2808;51.240;6.794;2022-08-30T00:44:27;101487.00;;;19.40
5571;BMP180;2808;51.240;6.794;2022-08-30T00:46:55;101488.00;;;19.40
5571;BMP180;2808;51.240;6.794;2022-08-30T00:49:22;101490.00;;;19.40
5571;BMP180;2808;51.240;6.794;2022-08-30T00:51:51;101488.00;;;19.50
5571;BMP180;2808;51.240;6.794;2022-08-30T00:54:19;101486.00;;;19.50
5571;BMP180;2808;51.240;6.794;2022-08-30T00:56:47;101489.00;;;19.40
5571;BMP180;2808;51.240;6.794;2022-08-30T00:59:16;101501.00;;;19.40
5571;BMP180;2808;51.240;6.794;2022-08-30T01:01:45;101504.00;;;19.50
5571;BMP180;2808;51.240;6.794;2022-08-30T01:04:15;101497.00;;;19.50
5571;BMP180;2808;51.240;6.794;2022-08-30T01:06:44;101496.00;;;19.50
5571;BMP180;2808;51.240;6.794;2022-08-30T01:09:13;101497.00;;;19.50
5571;BMP180;2808;51.240;6.794;2022-08-30T01:11:44;101503.00;;;19.40
5571;BMP180;2808;51.240;6.794;2022-08-30T01:14:13;101496.00;;;19.40
5571;BMP180;2808;51.240;6.794;2022-08-30T01:16:44;101503.00;;;19.40
5571;BMP180;2808;51.240;6.794;2022-08-30T01:19:20;101498.00;;;19.30
5571;BMP180;2808;51.240;6.794;2022-08-30T01:21:56;101505.00;;;19.30
5571;BMP180;2808;51.240;6.794;2022-08-30T01:24:26;101504.00;;;19.20
5571;BMP180;2808;51.240;6.794;2022-08-30T01:26:54;101503.00;;;19.20
5571;BMP180;2808;51.240;6.794;2022-08-30T01:29:23;101504.00;;;19.20
5571;BMP180;2808;51.240;6.794;2022-08-30T01:31:51;101504.00;;;19.10
5571;BMP180;2808;51.240;6.794;2022-08-30T01:34:19;101501.00;;;19.10
5571;BMP180;2808;51.240;6.794;2022-08-30T01:36:46;101502.00;;;19.00
5571;BMP180;2808;51.240;6.794;2022-08-30T01:39:16;101502.00;;;19.00
5571;BMP180;2808;51.240;6.794;2022-08-30T01:41:46;101499.00;;;19.00
5571;BMP180;2808;51.240;6.794;2022-08-30T01:44:15;101496.00;;;19.10
5571;BMP180;2808;51.240;6.794;2022-08-30T01:46:45;101508.00;;;19.10
5571;BMP180;2808;51.240;6.794;2022-08-30T01:49:15;101511.00;;;19.10
5571;BMP180;2808;51.240;6.794;2022-08-30T01:51:43;101510.00;;;19.10
5571;BMP180;2808;51.240;6.794;2022-08-30T01:54:11;101508.00;;;19.10
5571;BMP180;2808;51.240;6.794;2022-08-30T01:56:40;101508.00;;;19.10
5571;BMP180;2808;51.240;6.794;2022-08-30T01:59:09;101510.00;;;19.10
5571;BMP180;2808;51.240;6.794;2022-08-30T02:01:36;101509.00;;;19.10
5571;BMP180;2808;51.240;6.794;2022-08-30T02:04:16;101517.00;;;19.10
5571;BMP180;2808;51.240;6.794;2022-08-30T02:06:47;101515.00;;;19.10
5571;BMP180;2808;51.240;6.794;2022-08-30T02:09:16;101507.00;;;19.10
5571;BMP180;2808;51.240;6.794;2022-08-30T02:11:43;101509.00;;;19.10
5571;BMP180;2808;51.240;6.794;2022-08-30T02:14:14;101511.00;;;19.20
5571;BMP180;2808;51.240;6.794;2022-08-30T02:16:42;101504.00;;;19.20
5571;BMP180;2808;51.240;6.794;2022-08-30T02:19:09;101513.00;;;19.20
5571;BMP180;2808;51.240;6.794;2022-08-30T02:21:36;101506.00;;;19.10
5571;BMP180;2808;51.240;6.794;2022-08-30T02:24:04;101505.00;;;19.10
5571;BMP180;2808;51.240;6.794;2022-08-30T02:26:32;101503.00;;;19.10
5571;BMP180;2808;51.240;6.794;2022-08-30T02:29:01;101505.00;;;19.00
5571;BMP180;2808;51.240;6.794;2022-08-30T02:31:31;101500.00;;;19.00
5571;BMP180;2808;51.240;6.794;2022-08-30T02:33:59;101501.00;;;19.00
5571;BMP180;2808;51.240;6.794;2022-08-30T02:36:27;101501.00;;;19.00
5571;BMP180;2808;51.240;6.794;2022-08-30T02:38:54;101499.00;;;19.00
5571;BMP180;2808;51.240;6.794;2022-08-30T02:41:22;101495.00;;;19.00
5571;BMP180;2808;51.240;6.794;2022-08-30T02:43:49;101498.00;;;19.00
5571;BMP180;2808;51.240;6.794;2022-08-30T02:46:17;101499.00;;;18.90
5571;BMP180;2808;51.240;6.794;2022-08-30T02:48:46;101497.00;;;18.90
5571;BMP180;2808;51.240;6.794;2022-08-30T02:51:14;101494.00;;;18.90
5571;BMP180;2808;51.240;6.794;2022-08-30T02:53:43;101487.00;;;18.90
5571;BMP180;2808;51.240;6.794;2022-08-30T02:56:11;101495.00;;;18.90
5571;BMP180;2808;51.240;6.794;2022-08-30T02:58:39;101491.00;;;18.90
5571;BMP180;2808;51.240;6.794;2022-08-30T03:01:08;101489.00;;;18.90
5571;BMP180;2808;51.240;6.794;2022-08-30T03:03:37;101493.00;;;18.90
5571;BMP180;2808;51.240;6.794;2022-08-30T03:06:06;101490.00;;;18.90
5571;BMP180;2808;51.240;6.794;2022-08-30T03:08:35;101486.00;;;18.80
5571;BMP180;2808;51.240;6.794;2022-08-30T03:11:04;101492.00;;;18.80
5571;BMP180;2808;51.240;6.794;2022-08-30T03:13:32;101482.00;;;18.80
5571;BMP180;2808;51.240;6.794;2022-08-30T03:15:59;101479.00;;;18.80
5571;BMP180;2808;51.240;6.794;2022-08-30T03:18:27;101492.00;;;18.80
5571;BMP180;2808;51.240;6.794;2022-08-30T03:20:54;101485.00;;;18.80
5571;BMP180;2808;51.240;6.794;2022-08-30T03:23:23;101490.00;;;18.80
5571;BMP180;2808;51.240;6.794;2022-08-30T03:25:51;101487.00;;;18.70
5571;BMP180;2808;51.240;6.794;2022-08-30T03:28:19;101493.00;;;18.70
5571;BMP180;2808;51.240;6.794;2022-08-30T03:30:47;101488.00;;;18.80
5571;BMP180;2808;51.240;6.794;2022-08-30T03:33:14;101488.00;;;18.70
5571;BMP180;2808;51.240;6.794;2022-08-30T03:35:42;101489.00;;;18.70
5571;BMP180;2808;51.240;6.794;2022-08-30T03:38:09;101484.00;;;18.70
5571;BMP180;2808;51.240;6.794;2022-08-30T03:40:38;101493.00;;;18.70
5571;BMP180;2808;51.240;6.794;2022-08-30T03:43:06;101483.00;;;18.70
5571;BMP180;2808;51.240;6.794;2022-08-30T03:45:33;101482.00;;;18.60
5571;BMP180;2808;51.240;6.794;2022-08-30T03:48:01;101477.00;;;18.60
5571;BMP180;2808;51.240;6.794;2022-08-30T03:50:29;101484.00;;;18.60
5571;BMP180;2808;51.240;6.794;2022-08-30T03:52:57;101471.00;;;18.50
5571;BMP180;2808;51.240;6.794;2022-08-30T03:55:26;101468.00;;;18.50
5571;BMP180;2808;51.240;6.794;2022-08-30T03:57:56;101477.00;;;18.50
5571;BMP180;2808;51.240;6.794;2022-08-30T04:00:40;101472.00;;;18.40
5571;BMP180;2808;51.240;6.794;2022-08-30T04:03:08;101476.00;;;18.40
5571;BMP180;2808;51.240;6.794;2022-08-30T04:05:35;101479.00;;;18.40
5571;BMP180;2808;51.240;6.794;2022-08-30T04:08:03;101488.00;;;18.40
5571;BMP180;2808;51.240;6.794;2022-08-30T04:10:31;101475.00;;;18.30
5571;BMP180;2808;51.240;6.794;2022-08-30T04:13:01;101479.00;;;18.30
5571;BMP180;2808;51.240;6.794;2022-08-30T04:15:28;101475.00;;;18.30
5571;BMP180;2808;51.240;6.794;2022-08-30T04:17:56;101479.00;;;18.30
5571;BMP180;2808;51.240;6.794;2022-08-30T04:20:26;101490.00;;;18.30
5571;BMP180;2808;51.240;6.794;2022-08-30T04:22:53;101486.00;;;18.30
5571;BMP180;2808;51.240;6.794;2022-08-30T04:25:21;101477.00;;;18.20
5571;BMP180;2808;51.240;6.794;2022-08-30T04:27:48;101482.00;;;18.30
5571;BMP180;2808;51.240;6.794;2022-08-30T04:30:17;101491.00;;;18.30
5571;BMP180;2808;51.240;6.794;2022-08-30T04:32:45;101486.00;;;18.30
5571;BMP180;2808;51.240;6.794;2022-08-30T04:35:12;101487.00;;;18.20
5571;BMP180;2808;51.240;6.794;2022-08-30T04:37:41;101487.00;;;18.20
5571;BMP180;2808;51.240;6.794;2022-08-30T04:40:09;101484.00;;;18.20
5571;BMP180;2808;51.240;6.794;2022-08-30T04:42:37;101486.00;;;18.20
5571;BMP180;2808;51.240;6.794;2022-08-30T04:45:07;101483.00;;;18.20
5571;BMP180;2808;51.240;6.794;2022-08-30T04:47:36;101484.00;;;18.10
5571;BMP180;2808;51.240;6.794;2022-08-30T04:50:05;101477.00;;;18.10
5571;BMP180;2808;51.240;6.794;2022-08-30T04:52:48;101485.00;;;18.10
5571;BMP180;2808;51.240;6.794;2022-08-30T04:55:20;101494.00;;;18.10
5571;BMP180;2808;51.240;6.794;2022-08-30T04:57:49;101492.00;;;18.10
5571;BMP180;2808;51.240;6.794;2022-08-30T05:00:35;101506.00;;;18.10
5571;BMP180;2808;51.240;6.794;2022-08-30T05:03:04;101499.00;;;18.20
5571;BMP180;2808;51.240;6.794;2022-08-30T05:05:34;101499.00;;;18.20
5571;BMP180;2808;51.240;6.794;2022-08-30T05:08:09;101512.00;;;18.30
5571;BMP180;2808;51.240;6.794;2022-08-30T05:10:38;101514.00;;;18.40
5571;BMP180;2808;51.240;6.794;2022-08-30T05:13:07;101509.00;;;18.50
5571;BMP180;2808;51.240;6.794;2022-08-30T05:15:36;101515.00;;;18.60
5571;BMP180;2808;51.240;6.794;2022-08-30T05:18:06;101510.00;;;18.60
5571;BMP180;2808;51.240;6.794;2022-08-30T05:20:41;101514.00;;;18.60
5571;BMP180;2808;51.240;6.794;2022-08-30T05:23:12;101518.00;;;18.70
5571;BMP180;2808;51.240;6.794;2022-08-30T05:25:40;101522.00;;;18.80
5571;BMP180;2808;51.240;6.794;2022-08-30T05:28:08;101516.00;;;18.90
5571;BMP180;2808;51.240;6.794;2022-08-30T05:30:36;101517.00;;;18.90
5571;BMP180;2808;51.240;6.794;2022-08-30T05:33:05;101512.00;;;19.00
5571;BMP180;2808;51.240;6.794;2022-08-30T05:35:33;101517.00;;;19.10
5571;BMP180;2808;51.240;6.794;2022-08-30T05:38:04;101523.00;;;19.00
5571;BMP180;2808;51.240;6.794;2022-08-30T05:40:40;101530.00;;;18.90
5571;BMP180;2808;51.240;6.794;2022-08-30T05:43:09;101521.00;;;18.90
5571;BMP180;2808;51.240;6.794;2022-08-30T05:45:39;101514.00;;;18.90
5571;BMP180;2808;51.240;6.794;2022-08-30T05:48:08;101523.00;;;19.00
5571;BMP180;2808;51.240;6.794;2022-08-30T05:50:35;101528.00;;;19.10
5571;BMP180;2808;51.240;6.794;2022-08-30T05:53:03;101520.00;;;19.10
5571;BMP180;2808;51.240;6.794;2022-08-30T05:55:30;101515.00;;;19.20
5571;BMP180;2808;51.240;6.794;2022-08-30T05:58:00;101517.00;;;19.30
5571;BMP180;2808;51.240;6.794;2022-08-30T06:00:28;101519.00;;;19.30
5571;BMP180;2808;51.240;6.794;2022-08-30T06:02:56;101526.00;;;19.40
5571;BMP180;2808;51.240;6.794;2022-08-30T06:05:25;101521.00;;;19.50
5571;BMP180;2808;51.240;6.794;2022-08-30T06:07:53;101523.00;;;19.50
5571;BMP180;2808;51.240;6.794;2022-08-30T06:10:24;101519.00;;;19.50
5571;BMP180;2808;51.240;6.794;2022-08-30T06:12:52;101519.00;;;19.50
5571;BMP180;2808;51.240;6.794;2022-08-30T06:15:23;101515.00;;;19.50
5571;BMP180;2808;51.240;6.794;2022-08-30T06:18:23;101521.00;;;19.50
5571;BMP180;2808;51.240;6.794;2022-08-30T06:21:02;101523.00;;;19.50
5571;BMP180;2808;51.240;6.794;2022-08-30T06:23:51;101529.00;;;19.50
5571;BMP180;2808;51.240;6.794;2022-08-30T06:26:41;101520.00;;;19.60
5571;BMP180;2808;51.240;6.794;2022-08-30T06:29:37;101518.00;;;19.80
5571;BMP180;2808;51.240;6.794;2022-08-30T06:32:09;101526.00;;;20.00
5571;BMP180;2808;51.240;6.794;2022-08-30T06:34:40;101518.00;;;20.40
5571;BMP180;2808;51.240;6.794;2022-08-30T06:37:09;101515.00;;;20.80
5571;BMP180;2808;51.240;6.794;2022-08-30T06:39:42;101522.00;;;21.30
5571;BMP180;2808;51.240;6.794;2022-08-30T06:42:10;101527.00;;;21.40
5571;BMP180;2808;51.240;6.794;2022-08-30T06:44:43;101527.00;;;21.60
5571;BMP180;2808;51.240;6.794;2022-08-30T06:47:16;101519.00;;;22.00
5571;BMP180;2808;51.240;6.794;2022-08-30T06:49:46;101520.00;;;22.30
5571;BMP180;2808;51.240;6.794;2022-08-30T06:52:18;101513.00;;;22.70
5571;BMP180;2808;51.240;6.794;2022-08-30T06:54:48;101515.00;;;22.80
5571;BMP180;2808;51.240;6.794;2022-08-30T06:57:18;101506.00;;;23.10
5571;BMP180;2808;51.240;6.794;2022-08-30T06:59:47;101506.00;;;23.40
5571;BMP180;2808;51.240;6.794;2022-08-30T07:02:14;101509.00;;;23.30
5571;BMP180;2808;51.240;6.794;2022-08-30T07:04:42;101504.00;;;23.40
5571;BMP180;2808;51.240;6.794;2022-08-30T07:07:10;101509.00;;;23.20
5571;BMP180;2808;51.240;6.794;2022-08-30T07:09:41;101507.00;;;23.40
5571;BMP180;2808;51.240;6.794;2022-08-30T07:12:10;101519.00;;;23.60
5571;BMP180;2808;51.240;6.794;2022-08-30T07:14:40;101516.00;;;23.60
5571;BMP180;2808;51.240;6.794;2022-08-30T07:17:08;101516.00;;;23.80
5571;BMP180;2808;51.240;6.794;2022-08-30T07:19:50;101516.00;;;23.90
5571;BMP180;2808;51.240;6.794;2022-08-30T07:22:17;101518.00;;;23.70
5571;BMP180;2808;51.240;6.794;2022-08-30T07:24:46;101521.00;;;23.50
5571;BMP180;2808;51.240;6.794;2022-08-30T07:27:17;101513.00;;;23.40
5571;BMP180;2808;51.240;6.794;2022-08-30T07:29:47;101529.00;;;23.20
5571;BMP180;2808;51.240;6.794;2022-08-30T07:32:14;101517.00;;;22.70
5571;BMP180;2808;51.240;6.794;2022-08-30T07:34:42;101523.00;;;22.80
5571;BMP180;2808;51.240;6.794;2022-08-30T07:37:10;101527.00;;;22.90
5571;BMP180;2808;51.240;6.794;2022-08-30T07:39:37;101524.00;;;22.80
5571;BMP180;2808;51.240;6.794;2022-08-30T07:42:09;101521.00;;;22.80
5571;BMP180;2808;51.240;6.794;2022-08-30T07:44:48;101519.00;;;23.00
5571;BMP180;2808;51.240;6.794;2022-08-30T07:47:54;101530.00;;;23.10
5571;BMP180;2808;51.240;6.794;2022-08-30T07:57:40;101534.00;;;23.40
5571;BMP180;2808;51.240;6.794;2022-08-30T08:00:38;101530.00;;;23.60
5571;BMP180;2808;51.240;6.794;2022-08-30T08:03:23;101548.00;;;23.80
5571;BMP180;2808;51.240;6.794;2022-08-30T08:06:06;101536.00;;;23.50
5571;BMP180;2808;51.240;6.794;2022-08-30T08:09:00;101532.00;;;23.50
5571;BMP180;2808;51.240;6.794;2022-08-30T08:11:31;101539.00;;;23.60
5571;BMP180;2808;51.240;6.794;2022-08-30T08:14:02;101532.00;;;23.80
5571;BMP180;2808;51.240;6.794;2022-08-30T08:16:33;101539.00;;;24.20
5571;BMP180;2808;51.240;6.794;2022-08-30T08:19:13;101539.00;;;24.40
5571;BMP180;2808;51.240;6.794;2022-08-30T08:21:41;101531.00;;;24.70
5571;BMP180;2808;51.240;6.794;2022-08-30T08:24:09;101540.00;;;24.80
5571;BMP180;2808;51.240;6.794;2022-08-30T08:26:37;101539.00;;;24.20
5571;BMP180;2808;51.240;6.794;2022-08-30T08:29:07;101540.00;;;24.20
5571;BMP180;2808;51.240;6.794;2022-08-30T08:31:36;101534.00;;;24.20
5571;BMP180;2808;51.240;6.794;2022-08-30T08:34:12;101532.00;;;24.20
5571;BMP180;2808;51.240;6.794;2022-08-30T08:36:40;101535.00;;;24.20
5571;BMP180;2808;51.240;6.794;2022-08-30T08:39:23;101538.00;;;24.20
5571;BMP180;2808;51.240;6.794;2022-08-30T08:41:59;101549.00;;;23.80
5571;BMP180;2808;51.240;6.794;2022-08-30T08:44:45;101546.00;;;23.70
5571;BMP180;2808;51.240;6.794;2022-08-30T08:47:20;101551.00;;;23.70
5571;BMP180;2808;51.240;6.794;2022-08-30T08:49:55;101546.00;;;23.70
5571;BMP180;2808;51.240;6.794;2022-08-30T08:52:29;101545.00;;;23.70
5571;BMP180;2808;51.240;6.794;2022-08-30T08:55:19;101547.00;;;23.80
5571;BMP180;2808;51.240;6.794;2022-08-30T08:57:47;101542.00;;;23.80
5571;BMP180;2808;51.240;6.794;2022-08-30T09:00:18;101537.00;;;23.80
5571;BMP180;2808;51.240;6.794;2022-08-30T09:02:51;101539.00;;;24.00
5571;BMP180;2808;51.240;6.794;2022-08-30T09:05:22;101537.00;;;24.30
5571;BMP180;2808;51.240;6.794;2022-08-30T09:08:03;101537.00;;;24.10
5571;BMP180;2808;51.240;6.794;2022-08-30T09:10:31;101544.00;;;24.50
5571;BMP180;2808;51.240;6.794;2022-08-30T09:13:00;101542.00;;;24.50
5571;BMP180;2808;51.240;6.794;2022-08-30T09:15:31;101534.00;;;24.30
5571;BMP180;2808;51.240;6.794;2022-08-30T09:18:02;101534.00;;;24.20
5571;BMP180;2808;51.240;6.794;2022-08-30T09:20:33;101539.00;;;24.20
5571;BMP180;2808;51.240;6.794;2022-08-30T09:23:21;101538.00;;;24.00
5571;BMP180;2808;51.240;6.794;2022-08-30T09:25:57;101530.00;;;24.20
5571;BMP180;2808;51.240;6.794;2022-08-30T09:28:27;101529.00;;;24.30
5571;BMP180;2808;51.240;6.794;2022-08-30T09:31:05;101553.00;;;24.40
5571;BMP180;2808;51.240;6.794;2022-08-30T09:33:34;101528.00;;;24.20
5571;BMP180;2808;51.240;6.794;2022-08-30T09:36:18;101535.00;;;23.90
5571;BMP180;2808;51.240;6.794;2022-08-30T09:41:42;101534.00;;;24.00
5571;BMP180;2808;51.240;6.794;2022-08-30T09:44:14;101529.00;;;24.10
5571;BMP180;2808;51.240;6.794;2022-08-30T09:46:48;101537.00;;;23.80
5571;BMP180;2808;51.240;6.794;2022-08-30T09:49:33;101523.00;;;24.10
5571;BMP180;2808;51.240;6.794;2022-08-30T09:52:28;101533.00;;;24.50
5571;BMP180;2808;51.240;6.794;2022-08-30T09:55:08;101532.00;;;24.50
5571;BMP180;2808;51.240;6.794;2022-08-30T09:57:47;101530.00;;;24.30
5571;BMP180;2808;51.240;6.794;2022-08-30T10:00:20;101524.00;;;24.20
5571;BMP180;2808;51.240;6.794;2022-08-30T10:03:02;101524.00;;;24.40
5571;BMP180;2808;51.240;6.794;2022-08-30T10:05:38;101524.00;;;24.60
5571;BMP180;2808;51.240;6.794;2022-08-30T10:08:17;101521.00;;;24.60
5571;BMP180;2808;51.240;6.794;2022-08-30T10:10:51;101526.00;;;24.60
5571;BMP180;2808;51.240;6.794;2022-08-30T10:16:32;101517.00;;;24.90
5571;BMP180;2808;51.240;6.794;2022-08-30T10:19:14;101526.00;;;24.70
5571;BMP180;2808;51.240;6.794;2022-08-30T10:21:46;101519.00;;;24.60
5571;BMP180;2808;51.240;6.794;2022-08-30T10:24:18;101523.00;;;24.50
5571;BMP180;2808;51.240;6.794;2022-08-30T10:26:50;101535.00;;;24.50
5571;BMP180;2808;51.240;6.794;2022-08-30T10:29:22;101528.00;;;24.50
5571;BMP180;2808;51.240;6.794;2022-08-30T10:31:55;101519.00;;;24.60
5571;BMP180;2808;51.240;6.794;2022-08-30T10:34:33;101522.00;;;24.60
5571;BMP180;2808;51.240;6.794;2022-08-30T10:37:40;101535.00;;;24.20
5571;BMP180;2808;51.240;6.794;2022-08-30T10:40:14;101523.00;;;24.00
5571;BMP180;2808;51.240;6.794;2022-08-30T10:43:07;101526.00;;;24.10
5571;BMP180;2808;51.240;6.794;2022-08-30T10:45:44;101517.00;;;24.20
5571;BMP180;2808;51.240;6.794;2022-08-30T10:48:17;101533.00;;;24.30
5571;BMP180;2808;51.240;6.794;2022-08-30T10:50:55;101522.00;;;24.20
5571;BMP180;2808;51.240;6.794;2022-08-30T10:53:30;101518.00;;;24.30
5571;BMP180;2808;51.240;6.794;2022-08-30T10:56:02;101523.00;;;24.30
5571;BMP180;2808;51.240;6.794;2022-08-30T10:58:36;101515.00;;;24.30
5571;BMP180;2808;51.240;6.794;2022-08-30T11:01:18;101519.00;;;24.30
5571;BMP180;2808;51.240;6.794;2022-08-30T11:04:08;101514.00;;;24.40
5571;BMP180;2808;51.240;6.794;2022-08-30T11:06:49;101515.00;;;24.40
5571;BMP180;2808;51.240;6.794;2022-08-30T11:09:40;101523.00;;;24.50
5571;BMP180;2808;51.240;6.794;2022-08-30T11:12:30;101518.00;;;24.50
5571;BMP180;2808;51.240;6.794;2022-08-30T11:15:12;101517.00;;;24.60
5571;BMP180;2808;51.240;6.794;2022-08-30T11:17:45;101515.00;;;24.60
5571;BMP180;2808;51.240;6.794;2022-08-30T11:20:29;101520.00;;;24.40
5571;BMP180;2808;51.240;6.794;2022-08-30T11:23:23;101522.00;;;24.40
5571;BMP180;2808;51.240;6.794;2022-08-30T11:25:53;101514.00;;;24.30
5571;BMP180;2808;51.240;6.794;2022-08-30T11:31:43;101510.00;;;24.40
5571;BMP180;2808;51.240;6.794;2022-08-30T11:34:13;101522.00;;;24.30
5571;BMP180;2808;51.240;6.794;2022-08-30T11:37:02;101511.00;;;24.40
5571;BMP180;2808;51.240;6.794;2022-08-30T11:39:53;101509.00;;;24.50
5571;BMP180;2808;51.240;6.794;2022-08-30T11:42:27;101504.00;;;24.70
5571;BMP180;2808;51.240;6.794;2022-08-30T11:48:02;101507.00;;;24.70
5571;BMP180;2808;51.240;6.794;2022-08-30T11:50:35;101503.00;;;24.70
5571;BMP180;2808;51.240;6.794;2022-08-30T11:53:10;101513.00;;;24.70
5571;BMP180;2808;51.240;6.794;2022-08-30T11:55:58;101506.00;;;24.70
5571;BMP180;2808;51.240;6.794;2022-08-30T11:58:44;101499.00;;;24.80
5571;BMP180;2808;51.240;6.794;2022-08-30T12:04:03;101497.00;;;24.70
5571;BMP180;2808;51.240;6.794;2022-08-30T12:06:50;101491.00;;;24.60
5571;BMP180;2808;51.240;6.794;2022-08-30T12:12:53;101495.00;;;24.70
5571;BMP180;2808;51.240;6.794;2022-08-30T12:15:52;101487.00;;;24.80
5571;BMP180;2808;51.240;6.794;2022-08-30T12:18:29;101480.00;;;25.00
5571;BMP180;2808;51.240;6.794;2022-08-30T12:21:01;101486.00;;;25.00
5571;BMP180;2808;51.240;6.794;2022-08-30T12:23:39;101478.00;;;25.10
5571;BMP180;2808;51.240;6.794;2022-08-30T12:26:17;101486.00;;;25.20
5571;BMP180;2808;51.240;6.794;2022-08-30T12:28:47;101476.00;;;25.30
5571;BMP180;2808;51.240;6.794;2022-08-30T12:31:18;101486.00;;;25.30
5571;BMP180;2808;51.240;6.794;2022-08-30T12:33:48;101482.00;;;25.20
5571;BMP180;2808;51.240;6.794;2022-08-30T12:36:32;101472.00;;;25.20
5571;BMP180;2808;51.240;6.794;2022-08-30T12:39:09;101467.00;;;25.10
5571;BMP180;2808;51.240;6.794;2022-08-30T12:41:37;101470.00;;;25.10
5571;BMP180;2808;51.240;6.794;2022-08-30T12:44:11;101477.00;;;25.00
5571;BMP180;2808;51.240;6.794;2022-08-30T12:46:44;101470.00;;;25.00
5571;BMP180;2808;51.240;6.794;2022-08-30T12:49:15;101488.00;;;24.90
5571;BMP180;2808;51.240;6.794;2022-08-30T12:51:43;101480.00;;;24.90
5571;BMP180;2808;51.240;6.794;2022-08-30T12:54:18;101465.00;;;24.90
5571;BMP180;2808;51.240;6.794;2022-08-30T12:57:00;101462.00;;;25.00
5571;BMP180;2808;51.240;6.794;2022-08-30T12:59:44;101464.00;;;25.20
5571;BMP180;2808;51.240;6.794;2022-08-30T13:02:15;101462.00;;;25.30
5571;BMP180;2808;51.240;6.794;2022-08-30T13:04:44;101462.00;;;25.40
5571;BMP180;2808;51.240;6.794;2022-08-30T13:07:31;101462.00;;;25.20
5571;BMP180;2808;51.240;6.794;2022-08-30T13:10:07;101461.00;;;25.20
5571;BMP180;2808;51.240;6.794;2022-08-30T13:12:36;101451.00;;;25.20
5571;BMP180;2808;51.240;6.794;2022-08-30T13:15:15;101452.00;;;25.20
5571;BMP180;2808;51.240;6.794;2022-08-30T13:17:44;101452.00;;;25.30
5571;BMP180;2808;51.240;6.794;2022-08-30T13:20:25;101444.00;;;25.30
5571;BMP180;2808;51.240;6.794;2022-08-30T13:23:05;101449.00;;;25.30
5571;BMP180;2808;51.240;6.794;2022-08-30T13:25:34;101452.00;;;25.40
5571;BMP180;2808;51.240;6.794;2022-08-30T13:28:04;101448.00;;;25.30
5571;BMP180;2808;51.240;6.794;2022-08-30T13:30:35;101450.00;;;25.30
5571;BMP180;2808;51.240;6.794;2022-08-30T13:33:02;101440.00;;;25.30
5571;BMP180;2808;51.240;6.794;2022-08-30T13:35:31;101439.00;;;25.30
5571;BMP180;2808;51.240;6.794;2022-08-30T13:38:00;101438.00;;;25.30
5571;BMP180;2808;51.240;6.794;2022-08-30T13:40:29;101435.00;;;25.30
5571;BMP180;2808;51.240;6.794;2022-08-30T13:42:57;101437.00;;;25.20
5571;BMP180;2808;51.240;6.794;2022-08-30T13:45:24;101440.00;;;25.20
5571;BMP180;2808;51.240;6.794;2022-08-30T13:47:54;101428.00;;;25.20
5571;BMP180;2808;51.240;6.794;2022-08-30T13:50:22;101435.00;;;25.40
5571;BMP180;2808;51.240;6.794;2022-08-30T13:52:49;101407.00;;;25.50
5571;BMP180;2808;51.240;6.794;2022-08-30T13:55:17;101412.00;;;25.60
5571;BMP180;2808;51.240;6.794;2022-08-30T13:57:45;101421.00;;;25.40
5571;BMP180;2808;51.240;6.794;2022-08-30T14:00:16;101428.00;;;25.50
5571;BMP180;2808;51.240;6.794;2022-08-30T14:02:48;101441.00;;;25.40
5571;BMP180;2808;51.240;6.794;2022-08-30T14:05:19;101430.00;;;25.50
5571;BMP180;2808;51.240;6.794;2022-08-30T14:07:46;101414.00;;;25.50
5571;BMP180;2808;51.240;6.794;2022-08-30T14:10:15;101419.00;;;25.40
5571;BMP180;2808;51.240;6.794;2022-08-30T14:12:44;101416.00;;;25.40
5571;BMP180;2808;51.240;6.794;2022-08-30T14:15:12;101413.00;;;25.40
5571;BMP180;2808;51.240;6.794;2022-08-30T14:17:39;101411.00;;;25.40
5571;BMP180;2808;51.240;6.794;2022-08-30T14:20:07;101413.00;;;25.40
5571;BMP180;2808;51.240;6.794;2022-08-30T14:22:38;101419.00;;;25.30
5571;BMP180;2808;51.240;6.794;2022-08-30T14:25:08;101403.00;;;25.20
5571;BMP180;2808;51.240;6.794;2022-08-30T14:27:37;101400.00;;;25.20
5571;BMP180;2808;51.240;6.794;2022-08-30T14:30:06;101405.00;;;25.20
5571;BMP180;2808;51.240;6.794;2022-08-30T14:32:34;101406.00;;;25.20
5571;BMP180;2808;51.240;6.794;2022-08-30T14:35:02;101401.00;;;25.20
5571;BMP180;2808;51.240;6.794;2022-08-30T14:37:29;101409.00;;;25.20
5571;BMP180;2808;51.240;6.794;2022-08-30T14:39:58;101403.00;;;25.20
5571;BMP180;2808;51.240;6.794;2022-08-30T14:42:28;101392.00;;;25.30
5571;BMP180;2808;51.240;6.794;2022-08-30T14:44:58;101412.00;;;25.30
5571;BMP180;2808;51.240;6.794;2022-08-30T14:47:25;101400.00;;;25.20
5571;BMP180;2808;51.240;6.794;2022-08-30T14:49:53;101390.00;;;25.20
5571;BMP180;2808;51.240;6.794;2022-08-30T14:52:24;101395.00;;;25.20
5571;BMP180;2808;51.240;6.794;2022-08-30T14:54:51;101421.00;;;25.20
5571;BMP180;2808;51.240;6.794;2022-08-30T14:57:23;101393.00;;;25.00
5571;BMP180;2808;51.240;6.794;2022-08-30T14:59:50;101393.00;;;25.00
5571;BMP180;2808;51.240;6.794;2022-08-30T15:02:18;101391.00;;;25.00
5571;BMP180;2808;51.240;6.794;2022-08-30T15:04:48;101389.00;;;25.10
5571;BMP180;2808;51.240;6.794;2022-08-30T15:07:15;101386.00;;;25.10
5571;BMP180;2808;51.240;6.794;2022-08-30T15:09:43;101390.00;;;25.10
5571;BMP180;2808;51.240;6.794;2022-08-30T15:12:10;101378.00;;;25.00
5571;BMP180;2808;51.240;6.794;2022-08-30T15:14:39;101382.00;;;25.00
5571;BMP180;2808;51.240;6.794;2022-08-30T15:17:07;101376.00;;;25.00